Time;durP1;ratioP1;P1;durP2;ratioP2;P2;SDS_P1;SDS_P2;PMS_P1;PMS_P2;Temp;Humidity;BMP_temperature;BMP_pressure;BME280_temperature;BME280_humidity;BME280_pressure;Samples;Min_cycle;Max_cycle;Signal;HPM_P1;HPM_P2
2023/02/16 00:00:22;;;;;;;34.10;18.17;;;5.70;99.90;;;;;;5051251;28;20045;-58
2023/02/16 00:02:48;;;;;;;30.67;16.47;;;5.60;99.90;;;;;;5052225;28;20028;-56
2023/02/16 00:05:29;;;;;;;35.83;17.40;;;5.60;99.90;;;;;;5051442;28;20029;-58
2023/02/16 00:07:56;;;;;;;32.20;16.90;;;5.60;99.90;;;;;;5052182;28;20033;-58
2023/02/16 00:10:23;;;;;;;33.17;16.70;;;5.50;99.90;;;;;;5051792;28;20025;-58
2023/02/16 00:15:34;;;;;;;33.13;17.63;;;5.50;99.90;;;;;;5050411;28;20051;-58
2023/02/16 00:18:04;;;;;;;36.60;18.80;;;5.40;99.90;;;;;;5051665;28;20044;-57
2023/02/16 00:20:30;;;;;;;34.43;17.70;;;5.40;99.90;;;;;;5051302;28;20029;-58
2023/02/16 00:22:57;;;;;;;33.63;16.83;;;5.40;99.90;;;;;;5052095;28;20052;-58
2023/02/16 00:25:23;;;;;;;35.27;17.83;;;5.40;99.90;;;;;;5051215;28;20104;-57
2023/02/16 00:27:50;;;;;;;36.00;17.77;;;5.30;99.90;;;;;;5051516;28;20025;-57
2023/02/16 00:30:20;;;;;;;30.70;16.95;;;5.40;99.90;;;;;;5050178;28;20040;-57
2023/02/16 00:32:48;;;;;;;36.93;18.63;;;5.30;99.90;;;;;;5070458;28;20032;-60
2023/02/16 00:35:19;;;;;;;37.07;18.03;;;5.30;99.90;;;;;;5064262;28;20029;-57
2023/02/16 00:37:46;;;;;;;32.10;17.80;;;5.30;99.90;;;;;;5051474;28;20442;-58
2023/02/16 00:40:14;;;;;;;33.13;17.73;;;5.20;99.90;;;;;;5051079;28;20059;-58
2023/02/16 00:42:41;;;;;;;35.03;18.63;;;5.20;99.90;;;;;;5051351;28;20041;-57
2023/02/16 00:45:16;;;;;;;37.83;18.17;;;5.20;99.90;;;;;;5049573;28;20044;-57
2023/02/16 00:47:45;;;;;;;35.40;18.13;;;5.10;99.90;;;;;;5049814;28;20037;-58
2023/02/16 00:50:19;;;;;;;;;;;5.10;99.90;;;;;;5050465;28;20036;-57
2023/02/16 00:52:46;;;;;;;33.83;17.07;;;5.10;99.90;;;;;;5051308;28;19952;-58
2023/02/16 00:55:20;;;;;;;34.50;18.60;;;5.10;99.90;;;;;;5049385;28;20408;-57
2023/02/16 00:58:20;;;;;;;37.77;18.50;;;5.10;99.90;;;;;;5050489;28;20083;-58
2023/02/16 01:00:50;;;;;;;35.13;17.87;;;5.10;99.90;;;;;;5049615;28;20037;-59
2023/02/16 01:03:24;;;;;;;36.13;17.83;;;4.90;99.90;;;;;;5051156;28;20033;-58
2023/02/16 01:11:06;;;;;;;35.97;17.93;;;4.90;99.90;;;;;;5048830;28;20025;-58
2023/02/16 01:11:22;;;;;;;35.97;18.17;;;4.90;99.90;;;;;;5050630;28;20040;-58
2023/02/16 01:13:51;;;;;;;33.57;17.67;;;5.00;99.90;;;;;;5049193;28;20025;-59
2023/02/16 01:16:24;;;;;;;36.60;18.70;;;5.00;99.90;;;;;;5050350;28;20028;-57
2023/02/16 01:18:51;;;;;;;36.37;18.20;;;5.00;99.90;;;;;;5048631;28;20032;-59
2023/02/16 01:21:20;;;;;;;38.73;19.20;;;4.90;99.90;;;;;;5049039;28;20497;-58
2023/02/16 01:23:46;;;;;;;33.07;17.23;;;4.90;99.90;;;;;;5049791;28;20390;-58
2023/02/16 01:26:18;;;;;;;33.40;17.27;;;4.90;99.90;;;;;;5050222;28;20029;-58
2023/02/16 01:28:45;;;;;;;34.93;18.13;;;4.90;99.90;;;;;;5048029;28;20021;-58
2023/02/16 01:31:13;;;;;;;39.20;19.00;;;4.90;99.90;;;;;;5048654;28;20052;-58
2023/02/16 01:33:40;;;;;;;34.77;17.83;;;4.90;99.90;;;;;;5048178;28;20029;-57
2023/02/16 01:36:17;;;;;;;35.20;18.23;;;4.80;99.90;;;;;;5049997;28;20021;-58
2023/02/16 01:38:43;;;;;;;38.20;18.13;;;4.90;99.90;;;;;;5049862;28;20039;-58
2023/02/16 01:41:21;;;;;;;36.83;18.97;;;4.90;99.90;;;;;;5049958;28;20041;-58
2023/02/16 01:43:58;;;;;;;38.30;19.30;;;4.80;99.90;;;;;;5048713;28;20033;-58
2023/02/16 01:46:44;;;;;;;33.33;18.17;;;4.70;99.90;;;;;;5049633;28;20021;-58
2023/02/16 01:49:13;;;;;;;37.13;18.63;;;4.70;99.90;;;;;;5048121;28;20025;-58
2023/02/16 01:52:14;;;;;;;36.80;18.73;;;4.60;99.90;;;;;;5048302;28;20048;-59
2023/02/16 01:54:48;;;;;;;35.67;18.77;;;4.60;99.90;;;;;;5045717;28;20489;-58
2023/02/16 01:57:27;;;;;;;38.27;18.63;;;4.60;99.90;;;;;;5049474;28;20540;-58
2023/02/16 01:59:53;;;;;;;36.28;18.55;;;4.60;99.90;;;;;;5048287;28;20037;-58
2023/02/16 02:02:21;;;;;;;36.73;19.33;;;4.60;99.90;;;;;;5047648;28;20035;-58
2023/02/16 02:07:48;;;;;;;35.77;19.43;;;4.50;99.90;;;;;;5046546;28;20032;-58
2023/02/16 02:10:43;;;;;;;37.80;19.37;;;4.50;99.90;;;;;;5046997;28;20112;-58
2023/02/16 02:13:33;;;;;;;37.90;18.40;;;4.40;99.90;;;;;;5052060;28;20090;-59
2023/02/16 02:16:00;;;;;;;;;;;4.40;99.90;;;;;;5066429;28;20059;-58
2023/02/16 02:18:26;;;;;;;37.93;17.57;;;4.40;99.90;;;;;;5082589;28;19908;-58
2023/02/16 02:24:31;;;;;;;37.97;19.20;;;4.40;99.90;;;;;;5065930;28;20132;-57
2023/02/16 02:27:09;;;;;;;38.50;18.27;;;4.40;99.90;;;;;;5068399;28;20042;-59
2023/02/16 02:30:17;;;;;;;36.07;18.20;;;4.40;99.90;;;;;;5065851;28;20049;-57
2023/02/16 02:33:05;;;;;;;38.97;19.37;;;4.30;99.90;;;;;;5054958;28;20438;-58
2023/02/16 02:35:48;;;;;;;40.07;19.73;;;4.20;99.90;;;;;;5067729;28;20120;-57
2023/02/16 02:38:40;;;;;;;43.67;19.93;;;4.20;99.90;;;;;;5068114;28;20108;-58
2023/02/16 02:41:21;;;;;;;39.90;20.00;;;4.20;99.90;;;;;;5007022;28;20154;-57
2023/02/16 02:43:58;;;;;;;39.73;19.53;;;4.30;99.90;;;;;;5065484;28;20055;-58
2023/02/16 02:46:34;;;;;;;39.33;19.53;;;4.20;99.90;;;;;;5065591;28;20511;-58
2023/02/16 02:49:02;;;;;;;36.93;18.67;;;4.20;99.90;;;;;;5066366;28;20488;-58
2023/02/16 02:51:28;;;;;;;38.13;18.30;;;4.20;99.90;;;;;;5068344;28;20028;-57
2023/02/16 03:02:35;;;;;;;39.40;18.67;;;4.10;99.90;;;;;;5066498;28;20029;-58
2023/02/16 03:05:04;;;;;;;38.53;17.60;;;4.20;99.90;;;;;;5028693;28;1111315;-59
2023/02/16 03:07:46;;;;;;;37.55;18.50;;;4.20;99.90;;;;;;5067151;28;20454;-58
2023/02/16 03:13:17;;;;;;;39.07;18.93;;;4.20;99.90;;;;;;5068694;28;20063;-57
2023/02/16 03:15:45;;;;;;;41.10;18.43;;;4.10;99.90;;;;;;5067602;28;20040;-58
2023/02/16 03:29:21;;;;;;;38.87;19.50;;;4.00;99.90;;;;;;5067384;28;20146;-57
2023/02/16 03:31:48;;;;;;;38.77;18.87;;;4.00;99.90;;;;;;5068613;28;20131;-58
2023/02/16 03:34:16;;;;;;;38.33;18.37;;;4.10;99.90;;;;;;5067908;28;20086;-57
2023/02/16 03:36:46;;;;;;;40.53;18.37;;;4.20;99.90;;;;;;5068216;28;20056;-58
2023/02/16 03:39:11;;;;;;;;;;;4.20;99.90;;;;;;5068682;28;20043;-59
2023/02/16 03:41:48;;;;;;;40.57;20.10;;;4.20;99.90;;;;;;5068393;28;20006;-58
2023/02/16 03:44:14;;;;;;;41.60;19.57;;;4.20;99.90;;;;;;5066642;28;20036;-56
2023/02/16 03:46:40;;;;;;;39.77;20.30;;;4.20;99.90;;;;;;5068409;28;20404;-58
2023/02/16 03:49:06;;;;;;;39.37;19.97;;;4.10;99.90;;;;;;5067885;28;20040;-58
2023/02/16 03:51:32;;;;;;;44.03;21.20;;;4.10;99.90;;;;;;5068301;28;20055;-57
2023/02/16 03:53:58;;;;;;;40.60;20.40;;;4.00;99.90;;;;;;5067754;28;20037;-58
2023/02/16 03:56:23;;;;;;;44.90;20.60;;;3.90;99.90;;;;;;5069018;28;20032;-58
2023/02/16 03:58:49;;;;;;;40.17;19.57;;;3.90;99.90;;;;;;5070773;28;20024;-58
2023/02/16 04:01:15;;;;;;;44.10;21.17;;;3.90;99.90;;;;;;5071944;28;20048;-58
2023/02/16 04:03:40;;;;;;;40.17;20.23;;;3.90;99.90;;;;;;5071664;28;20029;-57
2023/02/16 04:06:06;;;;;;;44.17;20.03;;;3.80;99.90;;;;;;5096300;22;20424;-58
2023/02/16 04:08:32;;;;;;;40.67;20.03;;;3.80;99.90;;;;;;5091761;28;20514;-58
2023/02/16 04:10:59;;;;;;;40.37;19.50;;;3.80;99.90;;;;;;5091725;28;20036;-58
2023/02/16 04:13:25;;;;;;;37.83;20.03;;;3.90;99.90;;;;;;5084651;28;20515;-58
2023/02/16 04:15:50;;;;;;;40.27;18.80;;;3.90;99.90;;;;;;5059800;28;20139;-59
2023/02/16 04:18:16;;;;;;;40.93;19.07;;;3.90;99.90;;;;;;5051215;28;20033;-58
2023/02/16 04:20:42;;;;;;;39.17;19.87;;;3.90;99.90;;;;;;5051191;28;20029;-58
2023/02/16 04:23:07;;;;;;;38.93;18.97;;;3.90;99.90;;;;;;5051368;28;20055;-58
2023/02/16 04:25:33;;;;;;;40.90;19.77;;;3.80;99.90;;;;;;5050622;28;20135;-58
2023/02/16 04:27:59;;;;;;;45.70;20.50;;;3.90;99.90;;;;;;5051099;28;20032;-58
2023/02/16 04:30:28;;;;;;;40.43;20.83;;;3.90;99.90;;;;;;5049675;28;20043;-58
2023/02/16 04:32:54;;;;;;;40.08;19.38;;;3.80;99.90;;;;;;5051530;28;20037;-58
2023/02/16 04:35:20;;;;;;;39.03;20.00;;;3.90;99.90;;;;;;5050405;28;20067;-58
2023/02/16 04:37:46;;;;;;;42.07;20.30;;;3.90;99.90;;;;;;5051226;28;20075;-58
2023/02/16 04:40:14;;;;;;;37.67;18.70;;;3.90;99.90;;;;;;5049795;28;20038;-58
2023/02/16 04:42:40;;;;;;;42.37;19.63;;;3.90;99.90;;;;;;5049877;28;20112;-58
2023/02/16 04:45:07;;;;;;;40.53;20.17;;;3.90;99.90;;;;;;5047869;28;20040;-58
2023/02/16 04:47:33;;;;;;;38.23;20.23;;;3.90;99.90;;;;;;5049673;28;20122;-58
2023/02/16 04:49:58;;;;;;;43.17;20.90;;;3.90;99.90;;;;;;5061198;28;20179;-59
2023/02/16 04:52:24;;;;;;;42.40;19.47;;;3.90;99.90;;;;;;5071110;28;20029;-58
2023/02/16 04:54:50;;;;;;;39.17;18.83;;;3.90;99.90;;;;;;5052710;28;20060;-58
2023/02/16 04:57:16;;;;;;;38.07;19.23;;;4.00;99.90;;;;;;5050711;28;20025;-58
2023/02/16 04:59:42;;;;;;;36.97;19.73;;;4.00;99.90;;;;;;5049214;28;20731;-58
2023/02/16 05:02:07;;;;;;;39.13;19.30;;;4.00;99.90;;;;;;5050764;28;20051;-58
2023/02/16 05:04:33;;;;;;;40.87;20.37;;;4.00;99.90;;;;;;5050427;28;20035;-58
2023/02/16 05:06:59;;;;;;;44.27;20.13;;;4.00;99.90;;;;;;5050708;28;20047;-58
2023/02/16 05:09:25;;;;;;;43.37;20.17;;;4.00;99.90;;;;;;5049606;28;20666;-59
2023/02/16 05:14:41;;;;;;;39.00;19.07;;;4.00;99.90;;;;;;5048859;28;20083;-58
2023/02/16 05:17:21;;;;;;;40.20;19.40;;;4.00;99.90;;;;;;5050722;28;20066;-58
2023/02/16 05:19:55;;;;;;;38.73;18.60;;;4.10;99.90;;;;;;5049885;28;20389;-57
2023/02/16 05:22:21;;;;;;;40.43;19.13;;;4.10;99.90;;;;;;5050388;28;20119;-58
2023/02/16 05:24:47;;;;;;;39.20;19.77;;;4.10;99.90;;;;;;5049414;28;20121;-58
2023/02/16 05:27:22;;;;;;;39.30;19.07;;;4.10;99.90;;;;;;5050131;28;20025;-58
2023/02/16 05:29:48;;;;;;;40.37;19.67;;;4.10;99.90;;;;;;5048589;28;20169;-58
2023/02/16 05:32:14;;;;;;;40.70;19.77;;;4.00;99.90;;;;;;5068970;28;20028;-58
2023/02/16 05:34:40;;;;;;;38.63;19.30;;;3.90;99.90;;;;;;5068283;28;20466;-58
2023/02/16 05:37:06;;;;;;;41.07;20.90;;;3.90;99.90;;;;;;5058681;28;20117;-58
2023/02/16 05:39:32;;;;;;;39.93;19.63;;;3.90;99.90;;;;;;5048390;28;20043;-58
2023/02/16 05:41:58;;;;;;;39.57;18.67;;;3.90;99.90;;;;;;5059919;28;20120;-58
2023/02/16 05:44:23;;;;;;;41.10;19.57;;;4.00;99.90;;;;;;5048084;28;20113;-57
2023/02/16 05:46:49;;;;;;;39.10;20.00;;;4.00;99.90;;;;;;5049912;28;20025;-55
2023/02/16 05:49:15;;;;;;;38.47;18.77;;;4.00;99.90;;;;;;5049680;28;20053;-58
2023/02/16 05:51:41;;;;;;;41.97;21.00;;;4.10;99.90;;;;;;5049602;28;20350;-57
2023/02/16 05:54:09;;;;;;;37.80;20.43;;;4.10;99.90;;;;;;5049373;28;20021;-57
2023/02/16 05:56:35;;;;;;;41.60;20.70;;;4.10;99.90;;;;;;5049953;28;20040;-57
2023/02/16 05:59:01;;;;;;;39.07;20.40;;;4.20;99.90;;;;;;5049746;28;20055;-58
2023/02/16 06:01:27;;;;;;;43.20;20.90;;;4.10;99.90;;;;;;5050747;28;20103;-58
2023/02/16 06:03:53;;;;;;;41.33;20.63;;;4.10;99.90;;;;;;5049243;28;20087;-58
2023/02/16 06:06:19;;;;;;;42.17;20.50;;;4.10;99.90;;;;;;5048928;28;20486;-58
2023/02/16 06:08:45;;;;;;;38.43;20.60;;;4.10;99.90;;;;;;5047879;28;20033;-58
2023/02/16 06:13:58;;;;;;;43.03;19.47;;;4.30;99.90;;;;;;5047749;28;20035;-59
2023/02/16 06:16:28;;;;;;;43.27;19.80;;;4.30;99.90;;;;;;5049070;28;20056;-58
2023/02/16 06:18:55;;;;;;;39.53;19.60;;;4.40;99.90;;;;;;5048600;28;20047;-59
2023/02/16 06:21:21;;;;;;;41.70;19.43;;;4.40;99.90;;;;;;5049198;28;20032;-58
2023/02/16 06:23:47;;;;;;;38.43;19.63;;;4.50;99.90;;;;;;5048874;28;20033;-60
2023/02/16 06:26:14;;;;;;;38.20;19.73;;;4.50;99.90;;;;;;5049413;28;20040;-58
2023/02/16 06:28:39;;;;;;;40.60;18.83;;;4.60;99.90;;;;;;5047183;28;20021;-58
2023/02/16 06:31:05;;;;;;;43.80;20.87;;;4.60;99.90;;;;;;5048214;28;20025;-58
2023/02/16 06:33:31;;;;;;;38.60;18.77;;;4.60;99.90;;;;;;5048861;28;20029;-58
2023/02/16 06:35:57;;;;;;;39.37;19.97;;;4.60;99.90;;;;;;5049051;28;20056;-58
2023/02/16 06:38:23;;;;;;;40.73;19.50;;;4.70;99.90;;;;;;5049037;28;20089;-58
2023/02/16 06:40:52;;;;;;;40.30;17.63;;;4.80;99.90;;;;;;5048719;28;20065;-58
2023/02/16 06:43:18;;;;;;;;;;;4.80;99.90;;;;;;5049612;28;20037;-58
2023/02/16 06:45:44;;;;;;;39.37;18.70;;;4.80;99.90;;;;;;5047415;28;20292;-58
2023/02/16 06:48:09;;;;;;;42.47;19.97;;;4.80;99.90;;;;;;5049056;28;20063;-58
2023/02/16 06:50:35;;;;;;;37.50;19.33;;;4.80;99.90;;;;;;5048790;28;20116;-59
2023/02/16 06:53:01;;;;;;;40.83;20.37;;;4.90;99.90;;;;;;5049186;28;20597;-58
2023/02/16 06:55:27;;;;;;;40.10;18.93;;;4.90;99.90;;;;;;5048697;28;20036;-58
2023/02/16 06:57:53;;;;;;;38.20;17.53;;;5.00;99.90;;;;;;5048846;28;20087;-59
2023/02/16 07:00:19;;;;;;;42.67;18.97;;;5.00;99.90;;;;;;5047589;28;20021;-59
2023/02/16 07:02:45;;;;;;;37.57;18.33;;;5.00;99.90;;;;;;5049264;28;20082;-58
2023/02/16 07:05:11;;;;;;;39.67;18.80;;;5.10;99.90;;;;;;5048622;28;20127;-59
2023/02/16 07:07:37;;;;;;;34.87;18.03;;;5.10;99.90;;;;;;5048661;28;20126;-58
2023/02/16 07:10:03;;;;;;;38.40;19.13;;;5.10;99.90;;;;;;5047339;28;20029;-59
2023/02/16 07:12:29;;;;;;;39.53;19.17;;;5.20;99.90;;;;;;5048174;28;20029;-59
2023/02/16 07:14:55;;;;;;;39.60;19.87;;;5.20;99.90;;;;;;5046501;28;20032;-60
2023/02/16 07:17:21;;;;;;;41.00;17.73;;;5.20;99.90;;;;;;5048204;28;20202;-59
2023/02/16 07:19:46;;;;;;;40.77;19.63;;;5.30;99.90;;;;;;5048330;28;20116;-59
2023/02/16 07:22:12;;;;;;;37.07;17.83;;;5.30;99.90;;;;;;5048734;28;20045;-59
2023/02/16 07:24:38;;;;;;;35.47;16.43;;;5.30;99.90;;;;;;5057024;28;20190;-59
2023/02/16 07:27:04;;;;;;;37.63;16.93;;;5.40;99.90;;;;;;5068115;28;20021;-59
2023/02/16 07:29:30;;;;;;;38.43;19.17;;;5.40;99.90;;;;;;5066767;28;20020;-60
2023/02/16 07:31:56;;;;;;;37.30;19.30;;;5.50;99.90;;;;;;5070318;28;20036;-59
2023/02/16 07:34:22;;;;;;;35.97;17.83;;;5.50;99.90;;;;;;5071910;28;20056;-61
2023/02/16 07:36:48;;;;;;;37.93;17.97;;;5.50;99.90;;;;;;5071893;28;20064;-59
2023/02/16 07:39:14;;;;;;;36.03;17.83;;;5.50;99.90;;;;;;5071712;28;20197;-58
2023/02/16 07:41:40;;;;;;;37.97;18.20;;;5.50;99.90;;;;;;5072244;28;20028;-59
2023/02/16 07:44:07;;;;;;;38.00;17.77;;;5.50;99.90;;;;;;5068739;28;20147;-60
2023/02/16 07:46:33;;;;;;;38.93;19.33;;;5.50;99.90;;;;;;5071503;28;20020;-59
2023/02/16 07:48:59;;;;;;;31.43;17.87;;;5.60;99.90;;;;;;5071597;28;20100;-59
2023/02/16 07:51:27;;;;;;;35.83;18.43;;;5.70;99.90;;;;;;5071956;28;20435;-60
2023/02/16 07:53:53;;;;;;;33.83;17.63;;;5.80;99.90;;;;;;5071242;28;20124;-58
2023/02/16 07:56:21;;;;;;;40.33;19.73;;;5.80;99.90;;;;;;5062712;28;20044;-58
2023/02/16 07:58:47;;;;;;;34.87;18.57;;;5.80;99.90;;;;;;5050437;28;20068;-58
2023/02/16 08:01:13;;;;;;;33.90;17.40;;;5.90;99.90;;;;;;5051232;28;20072;-50
2023/02/16 08:03:40;;;;;;;37.50;17.60;;;6.00;99.90;;;;;;5050908;28;20033;-49
2023/02/16 08:06:07;;;;;;;37.77;18.10;;;6.10;99.90;;;;;;5051064;28;20380;-48
2023/02/16 08:08:33;;;;;;;35.73;17.70;;;6.20;99.90;;;;;;5050850;28;20120;-52
2023/02/16 08:10:59;;;;;;;33.17;18.10;;;6.30;99.90;;;;;;5051075;28;20033;-57
2023/02/16 08:13:25;;;;;;;37.17;18.10;;;6.30;99.90;;;;;;5050976;28;20036;-57
2023/02/16 08:15:50;;;;;;;33.43;17.77;;;6.30;99.90;;;;;;5049922;28;20086;-58
2023/02/16 08:18:16;;;;;;;35.03;18.17;;;6.40;99.90;;;;;;5050784;28;20064;-60
2023/02/16 08:20:42;;;;;;;34.97;17.97;;;6.40;99.90;;;;;;5050902;28;20033;-58
2023/02/16 08:23:09;;;;;;;33.80;18.57;;;6.40;99.90;;;;;;5051126;28;20131;-58
2023/02/16 08:25:35;;;;;;;34.03;17.17;;;6.40;99.90;;;;;;5050367;28;20040;-58
2023/02/16 08:28:02;;;;;;;32.57;18.20;;;6.40;99.90;;;;;;5050297;28;20108;-58
2023/02/16 08:30:28;;;;;;;34.93;17.67;;;6.40;99.90;;;;;;5049795;28;20405;-58
2023/02/16 08:32:55;;;;;;;35.17;18.63;;;6.50;99.90;;;;;;5049741;28;20094;-58
2023/02/16 08:35:21;;;;;;;35.53;17.83;;;6.50;99.90;;;;;;5050457;28;20087;-58
2023/02/16 08:37:47;;;;;;;38.57;18.83;;;6.50;99.90;;;;;;5050720;28;20028;-58
2023/02/16 08:40:13;;;;;;;33.60;18.00;;;6.60;99.90;;;;;;5050473;28;20040;-58
2023/02/16 08:42:39;;;;;;;64.60;33.77;;;6.70;99.90;;;;;;5049835;28;20116;-58
2023/02/16 08:45:06;;;;;;;48.23;25.70;;;6.80;99.90;;;;;;5049270;28;20056;-58
2023/02/16 08:47:33;;;;;;;35.90;19.43;;;7.10;99.90;;;;;;5050439;28;20040;-58
2023/02/16 08:49:58;;;;;;;34.23;18.63;;;7.40;99.90;;;;;;5050347;28;20056;-58
2023/02/16 08:52:24;;;;;;;30.20;17.17;;;7.70;99.90;;;;;;5050799;28;20053;-59
2023/02/16 08:54:50;;;;;;;30.27;16.87;;;7.90;99.90;;;;;;5048722;28;20406;-58
2023/02/16 08:57:17;;;;;;;37.97;18.17;;;8.10;99.90;;;;;;5050186;28;20029;-58
2023/02/16 08:59:43;;;;;;;35.10;18.37;;;8.20;99.90;;;;;;5049374;28;20120;-59
2023/02/16 09:02:10;;;;;;;30.03;17.37;;;8.30;99.90;;;;;;5069694;28;20449;-59
2023/02/16 09:04:36;;;;;;;30.97;16.70;;;8.50;99.90;;;;;;5069912;28;20132;-58
2023/02/16 09:07:03;;;;;;;32.77;16.93;;;8.60;99.90;;;;;;5070608;28;20056;-58
2023/02/16 09:09:29;;;;;;;32.00;17.47;;;8.60;99.90;;;;;;5070447;28;20111;-59
2023/02/16 09:11:56;;;;;;;31.07;17.07;;;8.50;99.90;;;;;;5070859;28;20331;-59
2023/02/16 09:14:22;;;;;;;36.07;17.90;;;8.60;99.90;;;;;;5069360;28;20085;-59
2023/02/16 09:16:48;;;;;;;31.37;18.20;;;8.60;99.90;;;;;;5070104;28;20108;-59
2023/02/16 09:19:17;;;;;;;30.60;16.97;;;8.60;99.90;;;;;;5070273;28;20661;-60
2023/02/16 09:21:43;;;;;;;30.38;16.27;;;8.70;99.90;;;;;;5070777;28;20051;-59
2023/02/16 09:24:10;;;;;;;29.33;16.53;;;8.70;99.90;;;;;;5069674;28;20037;-59
2023/02/16 09:26:37;;;;;;;31.43;16.37;;;8.80;99.90;;;;;;5070056;28;20020;-59
2023/02/16 09:29:04;;;;;;;33.47;16.47;;;9.20;99.90;;;;;;5069134;28;20871;-59
2023/02/16 09:31:33;;;;;;;32.17;18.17;;;9.50;99.90;;;;;;5070726;28;20195;-59
2023/02/16 09:34:06;;;;;;;29.40;16.88;;;9.20;99.90;;;;;;5069964;28;20105;-59
2023/02/16 09:36:32;;;;;;;31.70;17.00;;;9.20;99.90;;;;;;5069834;28;20221;-59
2023/02/16 09:38:59;;;;;;;32.73;17.63;;;9.10;99.90;;;;;;5069960;28;20119;-59
2023/02/16 09:41:30;;;;;;;29.90;16.77;;;9.00;99.90;;;;;;5070452;28;20024;-58
2023/02/16 09:44:14;;;;;;;27.77;16.37;;;8.80;99.90;;;;;;5068968;28;20103;-59
2023/02/16 09:46:41;;;;;;;29.97;17.03;;;8.70;99.90;;;;;;5069845;28;20033;-59
2023/02/16 09:49:22;;;;;;;33.83;17.80;;;8.60;99.90;;;;;;5069719;28;20443;-59
2023/02/16 09:51:53;;;;;;;31.53;17.93;;;8.50;99.90;;;;;;5070123;28;20378;-59
2023/02/16 09:54:44;;;;;;;36.50;18.13;;;8.50;99.90;;;;;;5069373;28;20397;-59
2023/02/16 09:57:22;;;;;;;34.47;17.17;;;8.40;99.90;;;;;;5069544;28;20043;-59
2023/02/16 09:59:55;;;;;;;33.30;18.60;;;8.30;99.90;;;;;;5068549;28;20033;-59
2023/02/16 10:02:36;;;;;;;30.30;17.20;;;8.20;99.90;;;;;;5069914;28;20100;-59
2023/02/16 10:05:12;;;;;;;36.87;17.77;;;8.20;99.90;;;;;;5071817;22;20100;-59
2023/02/16 10:07:48;;;;;;;33.37;17.67;;;8.20;99.90;;;;;;5088891;28;20081;-59
2023/02/16 10:10:20;;;;;;;30.80;17.83;;;8.10;99.90;;;;;;5089370;28;20103;-58
2023/02/16 10:12:55;;;;;;;36.67;18.17;;;8.10;99.90;;;;;;5089807;28;20112;-58
2023/02/16 10:15:25;;;;;;;33.33;17.63;;;8.00;99.90;;;;;;5087881;28;20032;-58
2023/02/16 10:17:57;;;;;;;37.23;18.60;;;8.00;99.90;;;;;;5089309;28;20081;-58
2023/02/16 10:20:39;;;;;;;36.67;18.90;;;8.00;99.90;;;;;;5089428;28;20050;-59
2023/02/16 10:23:42;;;;;;;36.97;18.43;;;8.00;99.90;;;;;;5089887;28;20047;-59
2023/02/16 10:26:29;;;;;;;34.67;18.30;;;8.00;99.90;;;;;;5089098;28;20066;-58
2023/02/16 10:28:58;;;;;;;35.37;18.50;;;8.00;99.90;;;;;;5088094;28;20054;-59
2023/02/16 10:31:38;;;;;;;37.67;19.10;;;8.00;99.90;;;;;;5089574;28;20030;-59
2023/02/16 10:34:42;;;;;;;35.90;18.80;;;8.00;99.90;;;;;;5089136;28;20032;-59
2023/02/16 10:37:47;;;;;;;35.00;18.27;;;8.10;99.90;;;;;;5089664;28;20197;-59
2023/02/16 10:40:27;;;;;;;32.13;18.20;;;8.20;99.90;;;;;;5074522;28;20036;-59
2023/02/16 10:43:40;;;;;;;34.05;18.50;;;8.30;99.90;;;;;;5089310;28;20044;-58
2023/02/16 10:46:13;;;;;;;34.57;17.50;;;8.30;99.90;;;;;;5045472;28;20033;-59
2023/02/16 10:48:38;;;;;;;34.80;18.57;;;8.40;99.90;;;;;;5085772;28;20059;-59
2023/02/16 10:51:11;;;;;;;36.70;18.37;;;8.60;99.90;;;;;;5088731;28;20215;-58
2023/02/16 10:53:44;;;;;;;37.27;18.93;;;8.70;99.90;;;;;;5088597;28;20052;-58
2023/02/16 10:56:31;;;;;;;35.47;17.90;;;8.90;99.90;;;;;;5088798;28;20421;-59
2023/02/16 10:59:00;;;;;;;31.83;18.23;;;9.00;99.90;;;;;;5085556;28;20036;-58
2023/02/16 11:01:35;;;;;;;35.28;18.83;;;9.20;99.90;;;;;;5088769;28;20020;-58
2023/02/16 11:04:01;;;;;;;33.17;18.20;;;9.30;99.90;;;;;;5088670;28;20040;-58
2023/02/16 11:06:27;;;;;;;33.70;18.53;;;9.40;99.90;;;;;;5089454;28;20055;-59
2023/02/16 11:08:56;;;;;;;33.40;18.27;;;9.50;99.90;;;;;;5092756;28;20689;-58
2023/02/16 11:11:27;;;;;;;31.90;18.88;;;9.50;99.90;;;;;;5093329;28;20156;-58
2023/02/16 11:14:00;;;;;;;33.57;19.20;;;9.60;99.90;;;;;;5091515;28;20059;-58
2023/02/16 11:16:26;;;;;;;35.67;20.03;;;9.70;99.90;;;;;;5092582;28;20035;-58
2023/02/16 11:19:21;;;;;;;32.47;19.27;;;9.70;99.90;;;;;;5092667;28;20028;-58
2023/02/16 11:21:54;;;;;;;31.43;18.73;;;9.70;99.90;;;;;;5092864;28;20048;-57
2023/02/16 11:24:28;;;;;;;34.03;18.40;;;9.80;99.90;;;;;;5091867;28;20028;-57
2023/02/16 11:27:00;;;;;;;35.03;18.83;;;9.60;99.90;;;;;;5092291;28;20020;-58
2023/02/16 11:29:26;;;;;;;33.93;19.67;;;9.60;99.90;;;;;;5091362;28;20127;-59
2023/02/16 11:31:52;;;;;;;33.10;18.10;;;9.50;99.90;;;;;;5092651;28;20117;-58
2023/02/16 11:34:34;;;;;;;32.20;18.80;;;9.50;99.90;;;;;;5092290;28;20097;-59
2023/02/16 11:37:07;;;;;;;33.73;18.47;;;9.40;99.90;;;;;;5091915;28;20028;-61
2023/02/16 11:39:39;;;;;;;38.17;19.23;;;9.50;99.90;;;;;;5092260;28;20490;-59
2023/02/16 11:42:36;;;;;;;35.20;18.10;;;9.50;99.90;;;;;;5092418;28;20074;-59
2023/02/16 11:45:04;;;;;;;41.60;19.77;;;9.50;99.90;;;;;;5090957;28;20059;-58
2023/02/16 11:47:40;;;;;;;37.43;19.80;;;9.50;99.90;;;;;;5092032;28;20119;-45
2023/02/16 11:50:21;;;;;;;34.87;19.70;;;9.50;99.90;;;;;;5092267;28;20051;-44
2023/02/16 11:52:49;;;;;;;34.53;19.43;;;9.50;99.90;;;;;;5092746;28;20032;-48
2023/02/16 11:55:32;;;;;;;37.87;19.70;;;9.40;99.90;;;;;;5091954;28;20085;-44
2023/02/16 11:58:12;;;;;;;35.97;20.37;;;9.50;99.90;;;;;;5091807;28;20036;-55
2023/02/16 12:00:46;;;;;;;36.67;20.63;;;9.40;99.90;;;;;;5090762;28;20167;-57
2023/02/16 12:03:24;;;;;;;36.37;20.37;;;9.40;99.90;;;;;;5092085;28;20103;-57
2023/02/16 12:06:02;;;;;;;36.03;20.90;;;9.30;99.90;;;;;;5091707;28;20572;-56
2023/02/16 12:08:32;;;;;;;33.40;19.60;;;9.30;99.90;;;;;;5091412;28;20035;-56
2023/02/16 12:11:00;;;;;;;32.30;20.13;;;9.30;99.90;;;;;;5091669;28;20036;-55
2023/02/16 12:13:47;;;;;;;34.50;21.13;;;9.40;99.90;;;;;;5091686;28;20036;-59
2023/02/16 12:16:30;;;;;;;36.43;19.67;;;9.40;99.90;;;;;;5092053;28;20545;-57
2023/02/16 12:19:31;;;;;;;36.60;19.97;;;9.50;99.90;;;;;;5091561;28;20024;-57
2023/02/16 12:22:28;;;;;;;36.37;18.73;;;9.60;99.90;;;;;;5075742;28;20181;-57
2023/02/16 12:25:21;;;;;;;37.07;21.03;;;9.50;99.90;;;;;;5070606;28;20267;-57
2023/02/16 12:27:50;;;;;;;34.97;20.07;;;9.50;99.90;;;;;;5069446;28;20025;-58
2023/02/16 12:30:43;;;;;;;35.63;19.55;;;9.70;99.90;;;;;;5071306;28;20440;-58
2023/02/16 12:33:40;;;;;;;38.07;21.57;;;9.70;99.90;;;;;;5070123;28;20677;-57
2023/02/16 12:36:31;;;;;;;35.13;19.73;;;9.90;99.90;;;;;;5071853;28;20532;-56
2023/02/16 12:39:22;;;;;;;37.43;20.63;;;9.90;99.90;;;;;;5071779;28;20032;-57
2023/02/16 12:42:00;;;;;;;32.87;19.97;;;10.00;99.90;;;;;;5070446;28;20522;-57
2023/02/16 12:44:51;;;;;;;39.83;20.63;;;10.10;99.90;;;;;;5074644;28;20427;-57
2023/02/16 12:47:53;;;;;;;39.47;19.83;;;10.30;99.90;;;;;;5092138;28;20336;-57
2023/02/16 12:50:24;;;;;;;39.10;20.50;;;10.50;99.90;;;;;;5072762;28;20040;-58
2023/02/16 12:53:01;;;;;;;36.20;20.10;;;10.70;99.90;;;;;;5092396;28;20032;-58
2023/02/16 12:55:35;;;;;;;39.37;22.00;;;10.70;99.90;;;;;;5092454;28;20165;-58
2023/02/16 12:58:07;;;;;;;37.30;20.77;;;10.60;99.90;;;;;;5092219;28;20057;-58
2023/02/16 13:00:48;;;;;;;35.37;20.90;;;10.60;99.90;;;;;;5092452;28;20024;-58
2023/02/16 13:03:27;;;;;;;36.53;21.23;;;10.60;99.90;;;;;;5091437;28;20401;-58
2023/02/16 13:05:59;;;;;;;;;;;10.40;99.90;;;;;;5092780;28;20056;-58
2023/02/16 13:08:47;;;;;;;38.47;22.03;;;10.40;99.90;;;;;;5092608;28;19908;-58
2023/02/16 13:11:24;;;;;;;37.90;21.73;;;10.30;99.90;;;;;;5092327;28;20409;-59
2023/02/16 13:13:55;;;;;;;38.83;21.50;;;10.30;99.90;;;;;;5092203;28;20028;-59
2023/02/16 13:16:41;;;;;;;37.20;22.43;;;10.20;99.90;;;;;;5092073;28;20024;-57
2023/02/16 13:19:11;;;;;;;41.63;21.43;;;10.20;99.90;;;;;;5092132;28;20032;-58
2023/02/16 13:21:53;;;;;;;38.63;23.37;;;10.20;99.90;;;;;;5092102;28;20032;-58
2023/02/16 13:24:33;;;;;;;35.07;22.77;;;10.30;99.90;;;;;;5091912;28;20043;-58
2023/02/16 13:27:22;;;;;;;39.93;22.30;;;10.40;99.90;;;;;;5091912;28;20071;-58
2023/02/16 13:30:26;;;;;;;39.30;21.95;;;10.40;99.90;;;;;;5091226;28;20081;-58
2023/02/16 13:33:04;;;;;;;35.77;21.77;;;10.40;99.90;;;;;;5091993;28;20058;-58
2023/02/16 13:35:51;;;;;;;37.83;21.67;;;10.50;99.90;;;;;;5091508;28;20503;-58
2023/02/16 13:38:47;;;;;;;42.47;23.90;;;10.50;99.90;;;;;;5091650;28;20131;-59
2023/02/16 13:41:50;;;;;;;37.73;21.30;;;10.50;99.90;;;;;;5091749;28;20453;-58